sensor_id;sensor_type;location;lat;lon;timestamp;temperature;humidity
66596;SHT31;59017;49.252;18.838;2022-10-04T00:01:49;20.66;59.48
66596;SHT31;59017;49.252;18.838;2022-10-04T00:07:06;20.68;59.06
66596;SHT31;59017;49.252;18.838;2022-10-04T00:09:57;20.66;59.42
66596;SHT31;59017;49.252;18.838;2022-10-04T00:12:27;20.69;59.23
66596;SHT31;59017;49.252;18.838;2022-10-04T00:14:56;20.66;59.37
66596;SHT31;59017;49.252;18.838;2022-10-04T00:17:27;20.65;59.16
66596;SHT31;59017;49.252;18.838;2022-10-04T00:19:56;20.65;59.08
66596;SHT31;59017;49.252;18.838;2022-10-04T00:25:14;20.66;59.28
66596;SHT31;59017;49.252;18.838;2022-10-04T00:30:39;20.65;59.12
66596;SHT31;59017;49.252;18.838;2022-10-04T00:33:04;20.66;59.03
66596;SHT31;59017;49.252;18.838;2022-10-04T00:46:06;20.63;59.08
66596;SHT31;59017;49.252;18.838;2022-10-04T00:56:48;20.60;59.09
66596;SHT31;59017;49.252;18.838;2022-10-04T00:59:49;20.59;59.44
66596;SHT31;59017;49.252;18.838;2022-10-04T01:10:11;20.60;59.22
66596;SHT31;59017;49.252;18.838;2022-10-04T01:13:38;20.62;59.29
66596;SHT31;59017;49.252;18.838;2022-10-04T01:16:12;20.59;59.60
66596;SHT31;59017;49.252;18.838;2022-10-04T01:18:38;20.60;59.42
66596;SHT31;59017;49.252;18.838;2022-10-04T01:21:08;20.59;59.51
66596;SHT31;59017;49.252;18.838;2022-10-04T01:26:06;20.60;59.26
66596;SHT31;59017;49.252;18.838;2022-10-04T01:28:47;20.59;59.10
66596;SHT31;59017;49.252;18.838;2022-10-04T01:31:13;20.60;59.41
66596;SHT31;59017;49.252;18.838;2022-10-04T01:33:40;20.59;59.02
66596;SHT31;59017;49.252;18.838;2022-10-04T01:36:05;20.57;59.06
66596;SHT31;59017;49.252;18.838;2022-10-04T01:38:31;20.60;59.26
66596;SHT31;59017;49.252;18.838;2022-10-04T01:40:58;20.59;59.15
66596;SHT31;59017;49.252;18.838;2022-10-04T01:43:30;20.62;59.41
66596;SHT31;59017;49.252;18.838;2022-10-04T01:46:08;20.63;60.15
66596;SHT31;59017;49.252;18.838;2022-10-04T01:48:36;20.65;59.75
66596;SHT31;59017;49.252;18.838;2022-10-04T01:54:17;20.65;59.96
66596;SHT31;59017;49.252;18.838;2022-10-04T01:59:18;20.66;59.93
66596;SHT31;59017;49.252;18.838;2022-10-04T02:01:56;20.65;60.04
66596;SHT31;59017;49.252;18.838;2022-10-04T02:04:28;20.63;59.54
66596;SHT31;59017;49.252;18.838;2022-10-04T02:06:56;20.63;59.57
66596;SHT31;59017;49.252;18.838;2022-10-04T02:09:28;20.63;59.43
66596;SHT31;59017;49.252;18.838;2022-10-04T02:11:56;20.63;59.64
66596;SHT31;59017;49.252;18.838;2022-10-04T02:14:31;20.60;59.56
66596;SHT31;59017;49.252;18.838;2022-10-04T02:17:02;20.60;59.39
66596;SHT31;59017;49.252;18.838;2022-10-04T02:19:35;20.60;59.41
66596;SHT31;59017;49.252;18.838;2022-10-04T02:22:03;20.62;59.43
66596;SHT31;59017;49.252;18.838;2022-10-04T02:24:35;20.59;59.24
66596;SHT31;59017;49.252;18.838;2022-10-04T02:27:01;20.62;59.36
66596;SHT31;59017;49.252;18.838;2022-10-04T02:29:27;20.59;59.29
66596;SHT31;59017;49.252;18.838;2022-10-04T02:31:53;20.62;59.45
66596;SHT31;59017;49.252;18.838;2022-10-04T02:34:37;20.63;59.81
66596;SHT31;59017;49.252;18.838;2022-10-04T02:37:05;20.65;59.88
66596;SHT31;59017;49.252;18.838;2022-10-04T02:39:47;20.59;59.68
66596;SHT31;59017;49.252;18.838;2022-10-04T02:44:54;20.60;59.36
66596;SHT31;59017;49.252;18.838;2022-10-04T02:47:25;20.57;59.44
66596;SHT31;59017;49.252;18.838;2022-10-04T02:50:04;20.60;59.26
66596;SHT31;59017;49.252;18.838;2022-10-04T02:52:38;20.59;59.27
66596;SHT31;59017;49.252;18.838;2022-10-04T02:55:26;20.56;59.40
66596;SHT31;59017;49.252;18.838;2022-10-04T02:57:54;20.57;59.33
66596;SHT31;59017;49.252;18.838;2022-10-04T03:00:26;20.59;59.15
66596;SHT31;59017;49.252;18.838;2022-10-04T03:05:37;20.57;59.24
66596;SHT31;59017;49.252;18.838;2022-10-04T03:08:04;20.59;59.16
66596;SHT31;59017;49.252;18.838;2022-10-04T03:10:30;20.60;59.15
66596;SHT31;59017;49.252;18.838;2022-10-04T03:12:56;20.56;59.11
66596;SHT31;59017;49.252;18.838;2022-10-04T03:15:22;20.60;59.01
66596;SHT31;59017;49.252;18.838;2022-10-04T03:17:48;20.60;59.31
66596;SHT31;59017;49.252;18.838;2022-10-04T03:20:14;20.59;59.23
66596;SHT31;59017;49.252;18.838;2022-10-04T03:22:47;20.60;59.38
66596;SHT31;59017;49.252;18.838;2022-10-04T03:25:20;20.60;59.60
66596;SHT31;59017;49.252;18.838;2022-10-04T03:27:47;20.62;60.06
66596;SHT31;59017;49.252;18.838;2022-10-04T03:30:16;20.65;59.97
66596;SHT31;59017;49.252;18.838;2022-10-04T03:32:45;20.60;60.42
66596;SHT31;59017;49.252;18.838;2022-10-04T03:35:32;20.59;60.48
66596;SHT31;59017;49.252;18.838;2022-10-04T03:37:59;20.55;60.20
66596;SHT31;59017;49.252;18.838;2022-10-04T03:40:29;20.55;60.33
66596;SHT31;59017;49.252;18.838;2022-10-04T03:42:58;20.53;60.37
66596;SHT31;59017;49.252;18.838;2022-10-04T03:45:25;20.49;60.38
66596;SHT31;59017;49.252;18.838;2022-10-04T03:47:55;20.49;60.27
66596;SHT31;59017;49.252;18.838;2022-10-04T03:50:28;20.46;60.27
66596;SHT31;59017;49.252;18.838;2022-10-04T03:53:06;20.49;60.43
66596;SHT31;59017;49.252;18.838;2022-10-04T03:55:40;20.48;60.23
66596;SHT31;59017;49.252;18.838;2022-10-04T03:58:13;20.45;60.15
66596;SHT31;59017;49.252;18.838;2022-10-04T04:07:02;20.42;60.47
66596;SHT31;59017;49.252;18.838;2022-10-04T04:09:45;20.41;60.63
66596;SHT31;59017;49.252;18.838;2022-10-04T04:12:35;20.41;60.23
66596;SHT31;59017;49.252;18.838;2022-10-04T04:15:03;20.38;60.35
66596;SHT31;59017;49.252;18.838;2022-10-04T04:17:46;20.38;60.30
66596;SHT31;59017;49.252;18.838;2022-10-04T04:20:59;20.35;60.54
66596;SHT31;59017;49.252;18.838;2022-10-04T04:23:27;20.35;60.46
66596;SHT31;59017;49.252;18.838;2022-10-04T04:25:59;20.33;60.27
66596;SHT31;59017;49.252;18.838;2022-10-04T04:28:31;20.35;60.08
66596;SHT31;59017;49.252;18.838;2022-10-04T04:31:22;20.35;61.31
66596;SHT31;59017;49.252;18.838;2022-10-04T04:36:20;20.31;59.98
66596;SHT31;59017;49.252;18.838;2022-10-04T04:38:46;20.32;59.95
66596;SHT31;59017;49.252;18.838;2022-10-04T04:41:31;20.32;59.91
66596;SHT31;59017;49.252;18.838;2022-10-04T04:43:59;20.32;59.81
66596;SHT31;59017;49.252;18.838;2022-10-04T04:46:26;20.31;59.78
66596;SHT31;59017;49.252;18.838;2022-10-04T04:49:06;20.26;59.74
66596;SHT31;59017;49.252;18.838;2022-10-04T04:51:32;20.31;59.95
66596;SHT31;59017;49.252;18.838;2022-10-04T04:53:59;20.28;59.91
66596;SHT31;59017;49.252;18.838;2022-10-04T04:56:27;20.29;59.90
66596;SHT31;59017;49.252;18.838;2022-10-04T04:58:56;20.29;59.80
66596;SHT31;59017;49.252;18.838;2022-10-04T05:01:34;20.31;59.78
66596;SHT31;59017;49.252;18.838;2022-10-04T05:09:05;20.26;60.32
66596;SHT31;59017;49.252;18.838;2022-10-04T05:11:36;20.28;60.33
66596;SHT31;59017;49.252;18.838;2022-10-04T05:14:08;20.29;60.26
66596;SHT31;59017;49.252;18.838;2022-10-04T05:17:01;20.26;60.68
66596;SHT31;59017;49.252;18.838;2022-10-04T05:19:31;20.28;60.29
66596;SHT31;59017;49.252;18.838;2022-10-04T05:21:59;20.32;60.27
66596;SHT31;59017;49.252;18.838;2022-10-04T05:24:34;20.31;60.65
66596;SHT31;59017;49.252;18.838;2022-10-04T05:27:07;20.32;60.43
66596;SHT31;59017;49.252;18.838;2022-10-04T05:29:41;20.31;60.50
66596;SHT31;59017;49.252;18.838;2022-10-04T05:32:23;20.31;60.64
66596;SHT31;59017;49.252;18.838;2022-10-04T05:34:52;20.28;60.40
66596;SHT31;59017;49.252;18.838;2022-10-04T05:42:44;20.28;60.23
66596;SHT31;59017;49.252;18.838;2022-10-04T05:45:17;20.28;60.38
66596;SHT31;59017;49.252;18.838;2022-10-04T05:47:45;20.28;60.17
66596;SHT31;59017;49.252;18.838;2022-10-04T05:50:36;20.31;60.87
66596;SHT31;59017;49.252;18.838;2022-10-04T05:53:33;20.28;60.61
66596;SHT31;59017;49.252;18.838;2022-10-04T05:58:54;20.29;60.72
66596;SHT31;59017;49.252;18.838;2022-10-04T06:07:00;20.31;60.43
66596;SHT31;59017;49.252;18.838;2022-10-04T06:09:55;20.32;60.88
66596;SHT31;59017;49.252;18.838;2022-10-04T06:24:01;20.35;60.02
66596;SHT31;59017;49.252;18.838;2022-10-04T06:26:54;20.35;60.62
66596;SHT31;59017;49.252;18.838;2022-10-04T06:29:27;20.33;60.28
66596;SHT31;59017;49.252;18.838;2022-10-04T06:32:27;20.35;60.41
66596;SHT31;59017;49.252;18.838;2022-10-04T06:40:31;20.35;60.30
66596;SHT31;59017;49.252;18.838;2022-10-04T06:46:19;20.36;60.56
66596;SHT31;59017;49.252;18.838;2022-10-04T06:48:58;20.39;60.31
66596;SHT31;59017;49.252;18.838;2022-10-04T07:00:04;20.42;59.89
66596;SHT31;59017;49.252;18.838;2022-10-04T07:02:48;20.41;59.79
66596;SHT31;59017;49.252;18.838;2022-10-04T07:08:23;20.45;60.47
66596;SHT31;59017;49.252;18.838;2022-10-04T07:11:04;20.42;59.94
66596;SHT31;59017;49.252;18.838;2022-10-04T07:13:38;20.41;59.92
66596;SHT31;59017;49.252;18.838;2022-10-04T07:21:27;19.85;57.09
66596;SHT31;59017;49.252;18.838;2022-10-04T07:23:59;19.78;58.12
66596;SHT31;59017;49.252;18.838;2022-10-04T07:26:42;19.60;57.61
66596;SHT31;59017;49.252;18.838;2022-10-04T07:29:19;19.56;57.27
66596;SHT31;59017;49.252;18.838;2022-10-04T07:32:14;19.47;57.20
66596;SHT31;59017;49.252;18.838;2022-10-04T07:37:50;19.33;56.70
66596;SHT31;59017;49.252;18.838;2022-10-04T07:40:23;19.30;57.26
66596;SHT31;59017;49.252;18.838;2022-10-04T07:42:56;19.23;56.12
66596;SHT31;59017;49.252;18.838;2022-10-04T07:45:28;19.25;56.26
66596;SHT31;59017;49.252;18.838;2022-10-04T07:48:18;19.39;56.54
66596;SHT31;59017;49.252;18.838;2022-10-04T07:53:42;19.39;56.43
66596;SHT31;59017;49.252;18.838;2022-10-04T07:56:16;19.42;56.32
66596;SHT31;59017;49.252;18.838;2022-10-04T08:03:58;19.42;56.16
66596;SHT31;59017;49.252;18.838;2022-10-04T08:20:02;19.35;55.27
66596;SHT31;59017;49.252;18.838;2022-10-04T08:25:20;19.36;55.31
66596;SHT31;59017;49.252;18.838;2022-10-04T08:47:57;19.18;55.23
66596;SHT31;59017;49.252;18.838;2022-10-04T08:53:59;19.25;55.03
66596;SHT31;59017;49.252;18.838;2022-10-04T08:56:54;19.26;55.22
66596;SHT31;59017;49.252;18.838;2022-10-04T09:16:48;19.28;55.02
66596;SHT31;59017;49.252;18.838;2022-10-04T09:34:26;19.50;51.82
66596;SHT31;59017;49.252;18.838;2022-10-04T09:42:45;19.57;51.90
66596;SHT31;59017;49.252;18.838;2022-10-04T09:57:02;19.66;53.04
66596;SHT31;59017;49.252;18.838;2022-10-04T10:10:54;19.45;51.94
66596;SHT31;59017;49.252;18.838;2022-10-04T10:27:55;19.57;51.62
66596;SHT31;59017;49.252;18.838;2022-10-04T10:38:59;19.55;51.94
66596;SHT31;59017;49.252;18.838;2022-10-04T10:48:04;19.45;51.59
66596;SHT31;59017;49.252;18.838;2022-10-04T11:00:07;19.56;51.48
66596;SHT31;59017;49.252;18.838;2022-10-04T11:28:01;19.69;49.59
66596;SHT31;59017;49.252;18.838;2022-10-04T11:36:28;19.81;51.02
66596;SHT31;59017;49.252;18.838;2022-10-04T11:41:55;20.18;51.99
66596;SHT31;59017;49.252;18.838;2022-10-04T11:53:36;20.45;52.19
66596;SHT31;59017;49.252;18.838;2022-10-04T11:56:35;20.52;52.22
66596;SHT31;59017;49.252;18.838;2022-10-04T11:59:39;20.56;52.04
66596;SHT31;59017;49.252;18.838;2022-10-04T12:09:09;20.70;52.07
66596;SHT31;59017;49.252;18.838;2022-10-04T12:24:03;20.77;52.25
66596;SHT31;59017;49.252;18.838;2022-10-04T12:40:55;20.94;52.13
66596;SHT31;59017;49.252;18.838;2022-10-04T13:03:34;20.90;52.26
66596;SHT31;59017;49.252;18.838;2022-10-04T13:26:29;20.91;52.39
66596;SHT31;59017;49.252;18.838;2022-10-04T13:29:26;20.91;51.94
66596;SHT31;59017;49.252;18.838;2022-10-04T13:47:54;20.87;52.80
66596;SHT31;59017;49.252;18.838;2022-10-04T13:50:50;20.89;52.56
66596;SHT31;59017;49.252;18.838;2022-10-04T14:11:25;20.86;52.44
66596;SHT31;59017;49.252;18.838;2022-10-04T14:25:40;20.81;52.93
66596;SHT31;59017;49.252;18.838;2022-10-04T14:42:15;20.84;53.04
66596;SHT31;59017;49.252;18.838;2022-10-04T14:44:59;20.86;53.48
66596;SHT31;59017;49.252;18.838;2022-10-04T14:50:46;20.86;53.44
66596;SHT31;59017;49.252;18.838;2022-10-04T14:53:22;20.86;53.53
66596;SHT31;59017;49.252;18.838;2022-10-04T14:58:57;20.86;53.54
66596;SHT31;59017;49.252;18.838;2022-10-04T15:01:26;20.83;53.49
66596;SHT31;59017;49.252;18.838;2022-10-04T15:04:31;20.83;52.99
66596;SHT31;59017;49.252;18.838;2022-10-04T15:07:28;20.83;52.89
66596;SHT31;59017;49.252;18.838;2022-10-04T15:10:21;20.84;53.19
66596;SHT31;59017;49.252;18.838;2022-10-04T15:16:03;20.84;53.68
66596;SHT31;59017;49.252;18.838;2022-10-04T15:18:43;20.84;53.82
66596;SHT31;59017;49.252;18.838;2022-10-04T15:21:28;20.87;54.16
66596;SHT31;59017;49.252;18.838;2022-10-04T15:27:27;20.89;54.34
66596;SHT31;59017;49.252;18.838;2022-10-04T15:30:10;20.84;54.53
66596;SHT31;59017;49.252;18.838;2022-10-04T15:32:43;20.87;54.84
66596;SHT31;59017;49.252;18.838;2022-10-04T15:35:48;20.87;54.90
66596;SHT31;59017;49.252;18.838;2022-10-04T15:49:54;20.90;55.33
66596;SHT31;59017;49.252;18.838;2022-10-04T15:52:46;20.91;55.34
66596;SHT31;59017;49.252;18.838;2022-10-04T15:55:20;20.93;55.40
66596;SHT31;59017;49.252;18.838;2022-10-04T16:00:24;20.93;55.31
66596;SHT31;59017;49.252;18.838;2022-10-04T16:05:56;20.91;55.34
66596;SHT31;59017;49.252;18.838;2022-10-04T16:22:34;20.93;56.53
66596;SHT31;59017;49.252;18.838;2022-10-04T16:30:35;20.91;56.43
66596;SHT31;59017;49.252;18.838;2022-10-04T16:33:11;20.89;56.34
66596;SHT31;59017;49.252;18.838;2022-10-04T16:35:44;20.89;56.42
66596;SHT31;59017;49.252;18.838;2022-10-04T16:45:49;20.86;55.94
66596;SHT31;59017;49.252;18.838;2022-10-04T16:48:56;20.86;55.67
66596;SHT31;59017;49.252;18.838;2022-10-04T16:57:12;20.83;55.29
66596;SHT31;59017;49.252;18.838;2022-10-04T17:07:41;20.77;54.92
66596;SHT31;59017;49.252;18.838;2022-10-04T17:10:39;20.80;55.00
66596;SHT31;59017;49.252;18.838;2022-10-04T17:13:31;20.77;54.67
66596;SHT31;59017;49.252;18.838;2022-10-04T17:16:16;20.77;55.14
66596;SHT31;59017;49.252;18.838;2022-10-04T17:19:15;20.79;55.29
66596;SHT31;59017;49.252;18.838;2022-10-04T17:27:52;20.80;56.00
66596;SHT31;59017;49.252;18.838;2022-10-04T17:30:23;20.79;56.19
66596;SHT31;59017;49.252;18.838;2022-10-04T17:33:13;20.79;56.78
66596;SHT31;59017;49.252;18.838;2022-10-04T17:38:55;20.80;56.69
66596;SHT31;59017;49.252;18.838;2022-10-04T17:47:33;20.79;56.81
66596;SHT31;59017;49.252;18.838;2022-10-04T17:50:24;20.77;56.37
66596;SHT31;59017;49.252;18.838;2022-10-04T17:53:16;20.77;56.47
66596;SHT31;59017;49.252;18.838;2022-10-04T17:56:03;20.76;56.42
66596;SHT31;59017;49.252;18.838;2022-10-04T17:58:41;20.73;56.69
66596;SHT31;59017;49.252;18.838;2022-10-04T18:04:06;20.75;56.31
66596;SHT31;59017;49.252;18.838;2022-10-04T18:06:57;20.76;56.71
66596;SHT31;59017;49.252;18.838;2022-10-04T18:09:45;20.72;56.69
66596;SHT31;59017;49.252;18.838;2022-10-04T18:12:35;20.70;56.75
66596;SHT31;59017;49.252;18.838;2022-10-04T18:15:17;20.73;56.61
66596;SHT31;59017;49.252;18.838;2022-10-04T18:17:47;20.70;56.46
66596;SHT31;59017;49.252;18.838;2022-10-04T18:20:28;20.70;56.45
66596;SHT31;59017;49.252;18.838;2022-10-04T18:22:58;20.72;56.50
66596;SHT31;59017;49.252;18.838;2022-10-04T18:25:25;20.70;56.52
66596;SHT31;59017;49.252;18.838;2022-10-04T18:28:12;20.69;56.81
66596;SHT31;59017;49.252;18.838;2022-10-04T18:41:31;20.65;56.64
66596;SHT31;59017;49.252;18.838;2022-10-04T18:44:18;20.65;56.72
66596;SHT31;59017;49.252;18.838;2022-10-04T18:46:46;20.63;56.51
66596;SHT31;59017;49.252;18.838;2022-10-04T18:49:22;20.62;56.86
66596;SHT31;59017;49.252;18.838;2022-10-04T19:10:48;20.59;57.33
66596;SHT31;59017;49.252;18.838;2022-10-04T19:19:05;20.59;57.49
66596;SHT31;59017;49.252;18.838;2022-10-04T19:21:38;20.60;56.94
66596;SHT31;59017;49.252;18.838;2022-10-04T19:24:40;20.60;57.36
66596;SHT31;59017;49.252;18.838;2022-10-04T19:40:50;20.60;60.17
66596;SHT31;59017;49.252;18.838;2022-10-04T19:43:28;20.62;60.09
66596;SHT31;59017;49.252;18.838;2022-10-04T19:48:52;20.63;59.87
66596;SHT31;59017;49.252;18.838;2022-10-04T19:51:27;20.62;59.87
66596;SHT31;59017;49.252;18.838;2022-10-04T19:54:10;20.63;59.80
66596;SHT31;59017;49.252;18.838;2022-10-04T19:56:49;20.62;60.07
66596;SHT31;59017;49.252;18.838;2022-10-04T19:59:36;20.62;59.74
66596;SHT31;59017;49.252;18.838;2022-10-04T20:02:11;20.63;60.48
66596;SHT31;59017;49.252;18.838;2022-10-04T20:04:38;20.63;59.99
66596;SHT31;59017;49.252;18.838;2022-10-04T20:07:26;20.65;60.36
66596;SHT31;59017;49.252;18.838;2022-10-04T20:12:38;20.65;59.91
66596;SHT31;59017;49.252;18.838;2022-10-04T20:17:44;20.66;59.94
66596;SHT31;59017;49.252;18.838;2022-10-04T20:22:59;20.66;59.96
66596;SHT31;59017;49.252;18.838;2022-10-04T20:31:01;20.65;59.53
66596;SHT31;59017;49.252;18.838;2022-10-04T20:35:59;20.66;60.18
66596;SHT31;59017;49.252;18.838;2022-10-04T20:44:00;20.62;59.75
66596;SHT31;59017;49.252;18.838;2022-10-04T20:46:36;20.63;59.77
66596;SHT31;59017;49.252;18.838;2022-10-04T20:49:03;20.59;59.61
66596;SHT31;59017;49.252;18.838;2022-10-04T20:51:30;20.59;59.54
66596;SHT31;59017;49.252;18.838;2022-10-04T20:53:58;20.57;59.45
66596;SHT31;59017;49.252;18.838;2022-10-04T20:56:31;20.55;59.23
66596;SHT31;59017;49.252;18.838;2022-10-04T20:59:02;20.56;59.20
66596;SHT31;59017;49.252;18.838;2022-10-04T21:01:33;20.56;59.30
66596;SHT31;59017;49.252;18.838;2022-10-04T21:04:19;20.56;59.70
66596;SHT31;59017;49.252;18.838;2022-10-04T21:09:28;20.53;59.45
66596;SHT31;59017;49.252;18.838;2022-10-04T21:11:55;20.52;59.26
66596;SHT31;59017;49.252;18.838;2022-10-04T21:14:33;20.51;59.38
66596;SHT31;59017;49.252;18.838;2022-10-04T21:17:00;20.55;59.32
66596;SHT31;59017;49.252;18.838;2022-10-04T21:22:02;20.52;59.27
66596;SHT31;59017;49.252;18.838;2022-10-04T21:27:45;20.49;59.25
66596;SHT31;59017;49.252;18.838;2022-10-04T21:30:15;20.48;59.22
66596;SHT31;59017;49.252;18.838;2022-10-04T21:32:41;20.51;59.33
66596;SHT31;59017;49.252;18.838;2022-10-04T21:35:07;20.48;59.04
66596;SHT31;59017;49.252;18.838;2022-10-04T21:37:34;20.48;59.35
66596;SHT31;59017;49.252;18.838;2022-10-04T21:39:59;20.49;59.17
66596;SHT31;59017;49.252;18.838;2022-10-04T21:42:25;20.49;59.33
66596;SHT31;59017;49.252;18.838;2022-10-04T21:44:51;20.46;59.14
66596;SHT31;59017;49.252;18.838;2022-10-04T21:47:16;20.46;59.30
66596;SHT31;59017;49.252;18.838;2022-10-04T21:49:42;20.48;58.83
66596;SHT31;59017;49.252;18.838;2022-10-04T21:52:08;20.49;58.99
66596;SHT31;59017;49.252;18.838;2022-10-04T21:54:34;20.48;59.02
66596;SHT31;59017;49.252;18.838;2022-10-04T21:56:59;20.52;59.28
66596;SHT31;59017;49.252;18.838;2022-10-04T21:59:25;20.52;59.15
66596;SHT31;59017;49.252;18.838;2022-10-04T22:01:51;20.51;59.27
66596;SHT31;59017;49.252;18.838;2022-10-04T22:04:16;20.49;59.21
66596;SHT31;59017;49.252;18.838;2022-10-04T22:06:42;20.52;59.22
66596;SHT31;59017;49.252;18.838;2022-10-04T22:09:08;20.51;59.01
66596;SHT31;59017;49.252;18.838;2022-10-04T22:11:34;20.49;58.93
66596;SHT31;59017;49.252;18.838;2022-10-04T22:14:00;20.45;58.61
66596;SHT31;59017;49.252;18.838;2022-10-04T22:16:25;20.48;58.78
66596;SHT31;59017;49.252;18.838;2022-10-04T22:18:51;20.46;58.98
66596;SHT31;59017;49.252;18.838;2022-10-04T22:21:16;20.43;58.70
66596;SHT31;59017;49.252;18.838;2022-10-04T22:23:43;20.48;59.02
66596;SHT31;59017;49.252;18.838;2022-10-04T22:26:20;20.48;59.58
66596;SHT31;59017;49.252;18.838;2022-10-04T22:28:54;20.45;59.13
66596;SHT31;59017;49.252;18.838;2022-10-04T22:31:28;20.46;59.33
66596;SHT31;59017;49.252;18.838;2022-10-04T22:33:54;20.46;59.20
66596;SHT31;59017;49.252;18.838;2022-10-04T22:36:35;20.43;58.93
66596;SHT31;59017;49.252;18.838;2022-10-04T22:41:35;20.43;58.98
66596;SHT31;59017;49.252;18.838;2022-10-04T22:44:18;20.42;59.12
66596;SHT31;59017;49.252;18.838;2022-10-04T22:46:55;20.43;59.50
66596;SHT31;59017;49.252;18.838;2022-10-04T22:49:34;20.43;59.53
66596;SHT31;59017;49.252;18.838;2022-10-04T22:52:04;20.46;59.40
66596;SHT31;59017;49.252;18.838;2022-10-04T22:54:34;20.42;59.40
66596;SHT31;59017;49.252;18.838;2022-10-04T22:56:59;20.43;59.28
66596;SHT31;59017;49.252;18.838;2022-10-04T22:59:42;20.41;59.73
66596;SHT31;59017;49.252;18.838;2022-10-04T23:02:20;20.41;59.07
66596;SHT31;59017;49.252;18.838;2022-10-04T23:04:53;20.41;58.94
66596;SHT31;59017;49.252;18.838;2022-10-04T23:07:20;20.43;58.87
66596;SHT31;59017;49.252;18.838;2022-10-04T23:09:46;20.41;58.85
66596;SHT31;59017;49.252;18.838;2022-10-04T23:12:11;20.41;58.79
66596;SHT31;59017;49.252;18.838;2022-10-04T23:14:38;20.39;58.92
66596;SHT31;59017;49.252;18.838;2022-10-04T23:17:24;20.39;59.57
66596;SHT31;59017;49.252;18.838;2022-10-04T23:19:55;20.39;59.15
66596;SHT31;59017;49.252;18.838;2022-10-04T23:22:26;20.39;59.03
66596;SHT31;59017;49.252;18.838;2022-10-04T23:24:52;20.39;59.01
66596;SHT31;59017;49.252;18.838;2022-10-04T23:27:18;20.39;58.66
66596;SHT31;59017;49.252;18.838;2022-10-04T23:29:45;20.41;58.93
66596;SHT31;59017;49.252;18.838;2022-10-04T23:32:12;20.39;58.91
66596;SHT31;59017;49.252;18.838;2022-10-04T23:34:41;20.41;59.02
66596;SHT31;59017;49.252;18.838;2022-10-04T23:37:29;20.41;59.16
66596;SHT31;59017;49.252;18.838;2022-10-04T23:39:56;20.39;58.72
66596;SHT31;59017;49.252;18.838;2022-10-04T23:42:24;20.39;58.86
66596;SHT31;59017;49.252;18.838;2022-10-04T23:44:55;20.39;58.83
66596;SHT31;59017;49.252;18.838;2022-10-04T23:47:22;20.38;58.62
66596;SHT31;59017;49.252;18.838;2022-10-04T23:49:51;20.35;58.67
66596;SHT31;59017;49.252;18.838;2022-10-04T23:52:36;20.35;59.16
66596;SHT31;59017;49.252;18.838;2022-10-04T23:55:15;20.36;58.99
66596;SHT31;59017;49.252;18.838;2022-10-04T23:57:40;20.36;58.65
